Time;durP1;ratioP1;P1;durP2;ratioP2;P2;SDS_P1;SDS_P2;PMS_P1;PMS_P2;Temp;Humidity;BMP_temperature;BMP_pressure;BME280_temperature;BME280_humidity;BME280_pressure;Samples;Min_cycle;Max_cycle;Signal;HPM_P1;HPM_P2
2023/01/04 00:01:22;;;;;;;47.13;26.67;;;;;;;0.84;91.00;101875.02;1599830;88;21696;-78
2023/01/04 00:03:49;;;;;;;45.07;26.23;;;;;;;0.87;91.07;101869.94;1600746;87;21100;-78
2023/01/04 00:06:17;;;;;;;44.00;25.50;;;;;;;0.89;91.11;101865.70;1599952;87;21132;-78
2023/01/04 00:08:44;;;;;;;44.90;25.60;;;;;;;0.91;91.09;101855.39;1600200;87;21171;-78
2023/01/04 00:11:16;;;;;;;45.30;25.87;;;;;;;0.96;91.17;101853.80;1600173;87;21089;-78
2023/01/04 00:13:44;;;;;;;36.80;23.60;;;;;;;0.98;91.22;101846.56;1600403;87;21072;-78
2023/01/04 00:16:18;;;;;;;41.70;24.77;;;;;;;1.03;91.38;101852.72;1587912;88;21114;-78
2023/01/04 00:18:45;;;;;;;39.87;24.30;;;;;;;1.07;91.39;101847.20;1588791;89;21631;-78
2023/01/04 00:21:16;;;;;;;40.70;23.30;;;;;;;1.10;91.62;101844.27;1589879;88;21162;-78
2023/01/04 00:23:46;;;;;;;58.27;28.37;;;;;;;1.14;91.62;101846.92;1641454;85;21049;-78
2023/01/04 00:26:18;;;;;;;65.30;30.15;;;;;;;1.18;91.58;101842.31;1642233;85;21070;-78
2023/01/04 00:28:45;;;;;;;81.43;36.37;;;;;;;1.21;91.57;101835.50;1643128;85;21129;-77
2023/01/04 00:31:14;;;;;;;65.27;32.00;;;;;;;1.23;91.58;101840.30;1610661;87;21349;-77
2023/01/04 00:33:42;;;;;;;93.37;35.97;;;;;;;1.28;91.57;101832.66;1602530;87;22018;-77
2023/01/04 00:36:12;;;;;;;69.67;31.20;;;;;;;1.30;91.71;101830.97;1596798;88;21149;-77
2023/01/04 00:38:40;;;;;;;57.55;27.50;;;;;;;1.34;91.72;101837.55;1596771;89;27130;-77
2023/01/04 00:41:09;;;;;;;84.23;33.93;;;;;;;1.35;91.59;101838.41;1602148;87;22319;-77
2023/01/04 00:43:37;;;;;;;84.03;32.87;;;;;;;1.34;91.55;101834.97;1602177;87;21107;-77
2023/01/04 00:46:05;;;;;;;44.97;24.97;;;;;;;1.39;91.85;101828.62;1609726;87;21244;-77
2023/01/04 00:48:33;;;;;;;42.83;25.00;;;;;;;1.44;91.99;101821.86;1597315;88;21662;-77
2023/01/04 00:51:00;;;;;;;42.00;24.90;;;;;;;1.47;92.05;101825.80;1597152;89;21175;-77
2023/01/04 00:53:27;;;;;;;39.77;24.23;;;;;;;1.53;92.12;101828.52;1602909;87;21088;-77
2023/01/04 00:56:00;;;;;;;42.40;24.77;;;;;;;1.60;92.22;101826.94;1602256;87;21103;-77
2023/01/04 00:58:27;;;;;;;41.53;24.47;;;;;;;1.63;92.18;101826.13;1596708;88;21126;-76
2023/01/04 01:00:55;;;;;;;40.23;24.97;;;;;;;1.67;92.17;101818.92;1607788;87;21015;-77
2023/01/04 01:03:22;;;;;;;43.00;25.53;;;;;;;1.70;92.03;101813.81;1642439;85;21671;-77
2023/01/04 01:05:49;;;;;;;43.40;26.00;;;;;;;1.72;92.04;101806.97;1641885;86;21080;-77
2023/01/04 01:08:25;;;;;;;39.57;25.10;;;;;;;1.73;91.99;101798.37;1613844;87;21283;-77
2023/01/04 01:10:53;;;;;;;40.87;23.17;;;;;;;1.74;92.04;101806.56;1605748;87;21142;-77
2023/01/04 01:13:22;;;;;;;40.73;24.03;;;;;;;1.77;92.09;101809.21;1601547;87;21092;-77
2023/01/04 01:15:49;;;;;;;43.10;23.80;;;;;;;1.79;92.06;101813.58;1601955;87;21498;-77
2023/01/04 01:18:16;;;;;;;43.20;23.37;;;;;;;1.80;91.97;101814.44;1601835;88;21096;-77
2023/01/04 01:20:44;;;;;;;45.23;24.87;;;;;;;1.82;91.94;101820.53;1604316;87;21312;-77
2023/01/04 01:23:13;;;;;;;38.87;24.20;;;;;;;1.83;91.91;101809.77;1598727;88;21831;-76
2023/01/04 01:25:41;;;;;;;41.40;24.97;;;;;;;1.83;91.83;101811.95;1595695;88;21123;-76
2023/01/04 01:28:09;;;;;;;66.47;28.73;;;;;;;1.84;91.93;101811.10;1592109;88;21087;-80
2023/01/04 01:30:42;;;;;;;78.60;33.77;;;;;;;1.84;91.84;101809.81;1595617;88;21170;-77
2023/01/04 01:33:10;;;;;;;111.93;43.53;;;;;;;1.85;91.85;101810.25;1591239;88;21131;-76
2023/01/04 01:35:37;;;;;;;99.13;39.30;;;;;;;1.86;91.70;101802.97;1592411;89;21837;-76
2023/01/04 01:38:04;;;;;;;52.33;28.13;;;;;;;1.84;91.55;101799.89;1591790;88;21127;-76
2023/01/04 01:40:31;;;;;;;45.70;26.27;;;;;;;1.83;91.53;101800.71;1596746;88;21147;-77
2023/01/04 01:42:58;;;;;;;42.90;23.73;;;;;;;1.79;91.52;101790.31;1592391;87;21552;-76
2023/01/04 01:45:32;;;;;;;87.73;31.80;;;;;;;1.79;91.62;101792.03;1597110;87;21543;-76
2023/01/04 01:48:08;;;;;;;58.57;27.10;;;;;;;1.74;90.91;101791.05;1592942;89;21106;-76
2023/01/04 01:50:40;;;;;;;55.53;26.60;;;;;;;1.67;91.12;101784.02;1590336;89;21099;-77
2023/01/04 01:53:09;;;;;;;64.40;29.33;;;;;;;1.66;91.21;101783.13;1595587;88;21134;-76
2023/01/04 01:55:38;;;;;;;60.33;29.60;;;;;;;1.59;90.79;101773.52;1591411;89;21126;-76
2023/01/04 01:58:09;;;;;;;57.43;27.87;;;;;;;1.53;90.83;101766.50;1592775;88;21111;-74
2023/01/04 02:00:37;;;;;;;43.07;24.87;;;;;;;1.50;90.93;101765.14;1596050;88;21137;-78
2023/01/04 02:03:20;;;;;;;43.93;25.07;;;;;;;1.45;90.97;101764.59;1590978;88;21079;-77
2023/01/04 02:05:52;;;;;;;40.80;24.80;;;;;;;1.42;91.12;101765.39;1592367;88;21090;-78
2023/01/04 02:08:22;;;;;;;42.27;25.33;;;;;;;1.39;91.12;101754.12;1592355;88;21152;-78
2023/01/04 02:10:50;;;;;;;39.98;24.15;;;;;;;1.36;91.09;101751.45;1597312;88;21499;-78
2023/01/04 02:14:25;;;;;;;42.23;23.87;;;;;;;1.31;91.04;101746.20;1592848;88;22435;-78
2023/01/04 02:16:28;;;;;;;42.27;24.40;;;;;;;1.26;91.01;101748.67;1571144;89;21567;-78
2023/01/04 02:19:00;;;;;;;46.80;25.50;;;;;;;1.23;91.07;101747.73;1590258;89;21109;-77
2023/01/04 02:21:57;;;;;;;48.27;25.80;;;;;;;1.21;91.30;101750.27;1589949;89;21087;-78
2023/01/04 02:25:12;;;;;;;47.50;25.63;;;;;;;1.20;91.43;101749.83;1569746;89;21079;-77
2023/01/04 02:27:56;;;;;;;45.63;26.10;;;;;;;1.19;91.47;101749.39;1590261;87;22086;-77
2023/01/04 02:31:07;;;;;;;46.30;26.50;;;;;;;1.20;91.55;101748.53;1590588;89;21079;-77
2023/01/04 02:33:48;;;;;;;41.45;23.35;;;;;;;1.16;91.44;101740.25;1588972;90;21181;-77
2023/01/04 02:36:43;;;;;;;43.07;23.23;;;;;;;1.14;91.46;101732.01;1589637;89;21104;-77
2023/01/04 02:39:25;;;;;;;42.77;24.90;;;;;;;1.11;91.58;101731.13;1590914;89;21091;-77
2023/01/04 02:45:23;;;;;;;39.23;23.93;;;;;;;1.04;91.51;101733.09;1590332;89;21056;-78
2023/01/04 02:50:52;;;;;;;43.47;25.17;;;;;;;0.93;91.47;101721.65;1590221;89;21621;-78
2023/01/04 02:53:31;;;;;;;44.13;24.27;;;;;;;0.91;91.52;101705.67;1589791;89;21086;-78
2023/01/04 02:56:34;;;;;;;49.43;25.47;;;;;;;0.85;91.44;101699.95;1589913;88;21156;-77
2023/01/04 02:59:16;;;;;;;40.27;23.70;;;;;;;0.82;91.43;101694.71;1589854;88;21035;-78
2023/01/04 03:07:40;;;;;;;45.77;23.87;;;;;;;0.72;91.61;101684.61;1622979;86;20463;-76
2023/01/04 03:10:22;;;;;;;39.37;23.60;;;;;;;0.71;91.58;101683.27;1624001;86;21138;-78
2023/01/04 03:12:57;;;;;;;42.70;24.03;;;;;;;0.68;91.47;101680.19;1623937;86;21127;-77
2023/01/04 03:15:28;;;;;;;47.60;24.87;;;;;;;0.66;91.58;101675.41;1622471;86;21463;-77
2023/01/04 03:18:16;;;;;;;46.43;25.17;;;;;;;0.65;91.68;101670.67;1603737;88;21124;-77
2023/01/04 03:20:44;;;;;;;51.40;29.00;;;;;;;0.64;91.76;101669.36;1623168;88;21066;-77
2023/01/04 03:43:08;;;;;;;56.40;25.43;;;;;;;0.57;91.95;101637.78;1623182;86;21161;-77
2023/01/04 03:49:49;;;;;;;47.83;21.97;;;;;;;0.67;92.68;101642.34;1625189;87;21508;-77
2023/01/04 03:52:16;;;;;;;40.43;19.67;;;;;;;0.70;92.76;101630.79;1626419;85;22600;-77
2023/01/04 03:54:47;;;;;;;32.40;19.13;;;;;;;0.73;92.83;101628.28;1625160;85;21515;-78
2023/01/04 03:57:15;;;;;;;35.60;19.25;;;;;;;0.76;92.79;101632.21;1625644;85;21102;-78
2023/01/04 03:59:53;;;;;;;33.27;19.17;;;;;;;0.79;92.77;101630.13;1625302;85;21083;-78
2023/01/04 04:02:26;;;;;;;59.87;29.70;;;;;;;0.80;92.60;101624.98;1626609;86;21331;-78
2023/01/04 04:10:25;;;;;;;54.93;23.13;;;;;;;0.83;92.50;101611.27;1625288;87;21071;-78
2023/01/04 04:12:52;;;;;;;56.83;23.67;;;;;;;0.82;92.35;101614.28;1626385;85;21147;-78
2023/01/04 04:15:19;;;;;;;53.47;21.80;;;;;;;0.81;92.30;101611.68;1626580;85;21119;-78
2023/01/04 04:17:46;;;;;;;42.87;19.90;;;;;;;0.81;92.27;101614.27;1596668;87;22016;-78
2023/01/04 04:20:13;;;;;;;44.10;19.87;;;;;;;0.80;92.23;101613.79;1592825;89;21115;-78
2023/01/04 04:22:40;;;;;;;38.33;17.17;;;;;;;0.79;92.24;101618.51;1591667;89;21106;-77
2023/01/04 04:25:08;;;;;;;41.03;19.83;;;;;;;0.78;92.20;101612.48;1596953;88;21052;-78
2023/01/04 04:27:36;;;;;;;35.57;18.37;;;;;;;0.77;92.05;101601.69;1596718;89;21114;-78
2023/01/04 04:30:04;;;;;;;36.07;18.40;;;;;;;0.74;92.00;101600.33;1596342;89;21152;-77
2023/01/04 04:32:32;;;;;;;30.73;15.53;;;;;;;0.74;92.06;101604.20;1601431;87;21637;-78
2023/01/04 04:34:59;;;;;;;31.70;15.70;;;;;;;0.73;91.99;101596.44;1601584;87;21136;-78
2023/01/04 04:37:27;;;;;;;28.77;15.77;;;;;;;0.72;91.95;101586.94;1601503;87;22263;-78
2023/01/04 04:39:54;;;;;;;25.70;15.03;;;;;;;0.69;92.00;101582.58;1601803;87;21840;-78
2023/01/04 04:42:21;;;;;;;41.87;22.87;;;;;;;0.67;92.03;101571.38;1601550;87;21159;-78
2023/01/04 04:44:48;;;;;;;50.33;27.47;;;;;;;0.67;91.91;101571.38;1602193;87;21093;-78
2023/01/04 04:47:15;;;;;;;57.43;24.30;;;;;;;0.62;91.73;101564.81;1601354;87;21092;-77
2023/01/04 04:49:42;;;;;;;54.70;22.07;;;;;;;0.58;91.73;101569.47;1607340;87;21525;-77
2023/01/04 04:52:09;;;;;;;45.10;18.67;;;;;;;0.56;91.75;101556.94;1573325;88;21602;-77
2023/01/04 04:54:36;;;;;;;31.30;16.20;;;;;;;0.55;92.02;101550.02;1573821;88;21950;-77
2023/01/04 04:57:04;;;;;;;36.80;17.40;;;;;;;0.57;92.10;101549.64;1573871;88;21079;-78
2023/01/04 04:59:31;;;;;;;38.63;17.13;;;;;;;0.59;92.20;101539.38;1573294;88;21084;-77
2023/01/04 05:01:58;;;;;;;37.00;17.53;;;;;;;0.62;92.28;101528.69;1642321;85;21066;-77
2023/01/04 05:04:25;;;;;;;29.80;14.80;;;;;;;0.64;92.21;101530.02;1643006;85;21111;-77
2023/01/04 05:06:52;;;;;;;30.07;15.90;;;;;;;0.65;92.32;101530.47;1643052;86;21549;-78
2023/01/04 05:09:19;;;;;;;33.80;17.30;;;;;;;0.66;92.24;101524.45;1642489;85;21500;-77
2023/01/04 05:14:31;;;;;;;38.40;21.00;;;;;;;0.61;91.93;101521.80;1641523;86;21063;-78
2023/01/04 05:16:58;;;;;;;31.50;19.90;;;;;;;0.58;91.72;101515.67;1643798;85;22661;-78
2023/01/04 05:19:25;;;;;;;33.40;20.50;;;;;;;0.52;91.63;101516.41;1641633;86;21740;-77
2023/01/04 05:21:52;;;;;;;45.23;29.00;;;;;;;0.50;91.60;101513.34;1640906;86;21055;-77
2023/01/04 05:24:19;;;;;;;71.00;38.43;;;;;;;0.46;91.59;101503.81;1630352;85;21140;-78
2023/01/04 05:26:46;;;;;;;99.97;40.53;;;;;;;0.42;91.71;101505.05;1637717;85;21056;-78
2023/01/04 05:30:49;;;;;;;45.27;20.77;;;;;;;0.44;91.84;101505.06;1644318;85;21067;-78
2023/01/04 05:31:42;;;;;;;42.27;18.80;;;;;;;0.43;91.97;101500.75;1639094;85;21100;-78
2023/01/04 05:34:10;;;;;;;27.40;14.33;;;;;;;0.45;92.17;101505.53;1642446;85;21111;-82
2023/01/04 05:36:37;;;;;;;30.57;15.13;;;;;;;0.46;92.16;101505.11;1642471;85;21077;-78
2023/01/04 05:39:04;;;;;;;25.67;14.30;;;;;;;0.46;92.16;101503.81;1607767;87;21516;-78
2023/01/04 05:44:16;;;;;;;19.80;11.60;;;;;;;0.49;92.34;101494.42;1605867;88;21148;-78
2023/01/04 05:46:43;;;;;;;18.50;10.43;;;;;;;0.48;92.25;101487.53;1608855;87;21613;-79
2023/01/04 05:49:10;;;;;;;17.03;10.03;;;;;;;0.52;92.32;101491.05;1601865;87;21084;-78
2023/01/04 05:51:37;;;;;;;20.07;11.10;;;;;;;0.53;92.43;101482.48;1604213;87;21052;-78
2023/01/04 05:54:04;;;;;;;15.50;9.83;;;;;;;0.56;92.59;101475.67;1603910;87;21083;-78
2023/01/04 05:56:31;;;;;;;18.13;10.40;;;;;;;0.60;92.59;101476.17;1606532;87;22094;-78
2023/01/04 05:58:58;;;;;;;17.43;9.73;;;;;;;0.61;92.54;101474.06;1606822;87;21000;-78
2023/01/04 06:01:25;;;;;;;17.83;10.47;;;;;;;0.63;92.53;101456.02;1607925;88;21007;-78
2023/01/04 06:03:52;;;;;;;15.07;9.93;;;;;;;0.64;92.46;101456.48;1597018;88;21572;-81
2023/01/04 06:06:19;;;;;;;18.80;10.60;;;;;;;0.65;92.49;101447.47;1597666;88;21094;-78
2023/01/04 06:08:46;;;;;;;14.53;8.90;;;;;;;0.65;92.43;101444.89;1597950;88;21156;-79
2023/01/04 06:11:13;;;;;;;15.10;9.40;;;;;;;0.66;92.49;101438.88;1597707;89;21591;-78
2023/01/04 06:13:40;;;;;;;14.60;9.13;;;;;;;0.69;92.57;101435.92;1596679;88;21550;-78
2023/01/04 06:16:07;;;;;;;16.43;8.90;;;;;;;0.71;92.53;101442.86;1597165;88;22593;-78
2023/01/04 06:18:34;;;;;;;18.57;10.70;;;;;;;0.71;92.44;101444.57;1598402;88;21612;-78
2023/01/04 06:21:01;;;;;;;18.90;10.37;;;;;;;0.72;92.56;101442.03;1615881;86;21356;-78
2023/01/04 06:23:28;;;;;;;19.93;10.80;;;;;;;0.74;92.59;101434.30;1603840;87;21584;-76
2023/01/04 06:25:58;;;;;;;16.33;9.63;;;;;;;0.75;92.43;101434.74;1601802;87;21097;-78
2023/01/04 06:28:24;;;;;;;17.27;9.23;;;;;;;0.73;92.45;101429.57;1590020;88;21600;-77
2023/01/04 06:30:51;;;;;;;19.03;10.73;;;;;;;0.76;92.48;101432.64;1588266;89;21779;-80
2023/01/04 06:33:18;;;;;;;14.33;8.80;;;;;;;0.76;92.48;101426.19;1590215;88;21945;-76
2023/01/04 06:35:55;;;;;;;18.07;9.93;;;;;;;0.77;92.53;101421.46;1589352;88;21048;-77
2023/01/04 06:38:22;;;;;;;17.43;9.73;;;;;;;0.78;92.45;101406.02;1588276;89;21603;-76
2023/01/04 06:40:49;;;;;;;15.17;9.13;;;;;;;0.78;92.45;101397.41;1589390;89;21062;-76
2023/01/04 06:43:16;;;;;;;14.43;9.87;;;;;;;0.80;92.43;101389.26;1588101;88;21126;-75
2023/01/04 06:45:43;;;;;;;20.07;10.87;;;;;;;0.79;92.42;101390.97;1587903;88;21174;-74
2023/01/04 06:48:10;;;;;;;29.80;15.60;;;;;;;0.81;92.47;101381.98;1617319;87;21051;-75
2023/01/04 06:50:38;;;;;;;17.90;10.63;;;;;;;0.80;92.43;101375.92;1617458;87;21083;-75
2023/01/04 06:53:05;;;;;;;17.50;9.70;;;;;;;0.80;92.48;101386.25;1621209;85;21084;-75
2023/01/04 06:55:33;;;;;;;16.77;10.20;;;;;;;0.80;92.30;101390.55;1616921;87;21688;-78
2023/01/04 06:58:00;;;;;;;15.23;9.70;;;;;;;0.79;92.36;101390.97;1616878;86;21156;-76
2023/01/04 07:00:27;;;;;;;18.17;10.10;;;;;;;0.79;92.16;101388.81;1617311;86;22129;-75
2023/01/04 07:02:54;;;;;;;19.20;11.23;;;;;;;0.77;92.06;101378.88;1616093;88;21532;-75
2023/01/04 07:05:22;;;;;;;21.20;12.33;;;;;;;0.74;92.25;101376.24;1617012;86;21089;-74
2023/01/04 07:07:49;;;;;;;17.73;10.27;;;;;;;0.76;92.39;101379.31;1617734;85;21123;-74
2023/01/04 07:10:16;;;;;;;21.20;11.03;;;;;;;0.76;92.39;101378.44;1616870;86;21143;-74
2023/01/04 07:12:43;;;;;;;17.83;11.47;;;;;;;0.77;92.40;101382.75;1617041;87;21114;-74
2023/01/04 07:15:11;;;;;;;16.73;10.60;;;;;;;0.79;92.54;101363.02;1617724;87;21071;-80
2023/01/04 07:17:38;;;;;;;17.77;10.90;;;;;;;0.81;92.54;101354.45;1616202;87;21626;-75
2023/01/04 07:20:06;;;;;;;19.87;10.80;;;;;;;0.85;92.73;101351.08;1616413;87;21267;-74
2023/01/04 07:22:34;;;;;;;16.83;9.90;;;;;;;0.89;92.79;101346.86;1588170;88;21101;-78
2023/01/04 07:25:01;;;;;;;16.87;10.20;;;;;;;0.93;92.69;101347.77;1619378;87;21063;-76
2023/01/04 07:27:28;;;;;;;16.70;9.93;;;;;;;0.94;92.63;101342.63;1629288;85;21120;-76
2023/01/04 07:29:55;;;;;;;18.77;10.53;;;;;;;0.97;92.73;101337.94;1632023;86;21093;-76
2023/01/04 07:32:22;;;;;;;18.87;11.47;;;;;;;1.00;92.73;101343.14;1635584;85;21624;-76
2023/01/04 07:34:49;;;;;;;45.03;22.17;;;;;;;1.06;92.87;101341.98;1636082;87;21183;-76
2023/01/04 07:37:16;;;;;;;23.13;12.70;;;;;;;1.10;92.85;101344.63;1635340;87;21040;-75
2023/01/04 07:39:43;;;;;;;32.33;17.50;;;;;;;1.16;92.83;101350.73;1635750;87;21093;-76
2023/01/04 07:42:11;;;;;;;22.30;13.80;;;;;;;1.20;92.81;101346.95;1634555;87;21091;-76
2023/01/04 07:44:38;;;;;;;23.67;14.80;;;;;;;1.25;92.83;101345.75;1635472;87;21084;-76
2023/01/04 07:47:05;;;;;;;24.77;15.00;;;;;;;1.32;92.94;101335.94;1634322;86;21602;-76
2023/01/04 07:49:32;;;;;;;19.70;12.00;;;;;;;1.39;93.07;101336.50;1602065;88;21546;-76
2023/01/04 07:51:59;;;;;;;22.83;13.33;;;;;;;1.49;93.04;101336.20;1600725;87;21072;-76
2023/01/04 07:54:26;;;;;;;20.53;12.07;;;;;;;1.56;93.06;101333.73;1589583;89;22305;-75
2023/01/04 07:56:53;;;;;;;23.60;12.33;;;;;;;1.64;92.99;101324.81;1589674;89;21155;-75
2023/01/04 07:59:21;;;;;;;30.97;14.73;;;;;;;1.73;92.99;101327.95;1588497;89;21205;-73
2023/01/04 08:01:49;;;;;;;43.93;23.17;;;;;;;1.78;92.89;101303.90;1587997;88;21033;-76
2023/01/04 08:04:19;;;;;;;37.20;17.97;;;;;;;1.85;92.73;101300.95;1589182;89;21097;-76
2023/01/04 08:06:46;;;;;;;37.43;18.40;;;;;;;1.89;92.57;101294.13;1589838;88;21116;-87
2023/01/04 08:09:13;;;;;;;33.13;17.37;;;;;;;1.90;92.33;101294.56;1589735;88;21096;-81
2023/01/04 08:11:40;;;;;;;25.63;14.47;;;;;;;1.92;92.19;101292.88;1590422;88;21740;-76
2023/01/04 08:14:07;;;;;;;23.30;13.33;;;;;;;1.91;92.05;101279.48;1599658;87;21099;-76
2023/01/04 08:16:38;;;;;;;22.87;11.83;;;;;;;1.91;91.92;101270.03;1635948;85;21079;-76
2023/01/04 08:19:16;;;;;;;18.17;10.83;;;;;;;1.90;91.75;101264.41;1637869;85;21079;-76
2023/01/04 08:21:44;;;;;;;18.43;10.67;;;;;;;1.90;91.75;101264.41;1635435;85;21736;-79
2023/01/04 08:24:14;;;;;;;20.53;12.50;;;;;;;1.88;91.66;101253.59;1635172;85;21198;-76
2023/01/04 08:26:42;;;;;;;23.13;13.20;;;;;;;1.84;91.64;101249.25;1639016;85;21080;-76
2023/01/04 08:29:11;;;;;;;20.87;11.73;;;;;;;1.78;91.73;101253.50;1643369;85;21666;-75
2023/01/04 08:31:40;;;;;;;17.10;11.90;;;;;;;1.79;91.80;101240.14;1642768;85;21545;-77
2023/01/04 08:34:08;;;;;;;17.07;11.03;;;;;;;1.81;91.87;101241.03;1643464;85;21629;-73
2023/01/04 08:36:49;;;;;;;21.67;11.97;;;;;;;1.84;91.95;101231.16;1606486;87;21935;-77
2023/01/04 08:39:16;;;;;;;18.80;11.15;;;;;;;1.85;91.96;101225.12;1602275;87;21143;-82
2023/01/04 08:41:50;;;;;;;17.43;10.80;;;;;;;1.88;91.99;101217.41;1602602;87;21076;-76
2023/01/04 08:44:21;;;;;;;20.30;11.33;;;;;;;1.93;92.19;101209.28;1603105;87;21049;-78
2023/01/04 08:46:54;;;;;;;18.50;11.43;;;;;;;2.00;92.33;101203.34;1604674;87;21073;-83
2023/01/04 08:49:23;;;;;;;21.67;12.23;;;;;;;2.08;92.38;101191.77;1603176;87;21115;-77
2023/01/04 08:51:51;;;;;;;20.07;12.07;;;;;;;2.15;92.25;101193.14;1602928;87;21068;-76
2023/01/04 08:54:19;;;;;;;20.13;12.13;;;;;;;2.18;92.07;101188.42;1602779;87;22547;-86
2023/01/04 08:56:47;;;;;;;24.47;13.03;;;;;;;2.18;92.14;101166.02;1603214;87;21073;-77
2023/01/04 08:59:15;;;;;;;20.20;12.37;;;;;;;2.27;92.02;101176.00;1591851;88;21104;-76
2023/01/04 09:01:42;;;;;;;21.27;13.87;;;;;;;2.33;92.09;101170.88;1603062;87;21178;-79
2023/01/04 09:04:10;;;;;;;29.03;18.23;;;;;;;2.39;92.07;101174.84;1602002;87;21033;-77
2023/01/04 09:06:38;;;;;;;31.07;17.07;;;;;;;2.44;92.08;101162.38;1601282;87;21100;-76
2023/01/04 09:09:05;;;;;;;25.77;14.20;;;;;;;2.55;92.16;101157.70;1603262;87;21108;-76
2023/01/04 09:11:34;;;;;;;22.17;14.13;;;;;;;2.62;92.10;101146.13;1601785;87;21092;-76
2023/01/04 09:14:01;;;;;;;22.97;13.97;;;;;;;2.70;92.10;101141.45;1603200;87;21261;-76
2023/01/04 09:16:28;;;;;;;21.50;12.50;;;;;;;2.77;92.07;101143.20;1600676;87;21096;-79
2023/01/04 09:18:56;;;;;;;20.40;12.43;;;;;;;2.83;92.04;101132.47;1603144;87;21144;-76
2023/01/04 09:21:23;;;;;;;22.40;13.27;;;;;;;2.92;92.09;101128.21;1597283;88;22254;-74
2023/01/04 09:23:50;;;;;;;21.07;12.37;;;;;;;3.03;92.25;101133.02;1604659;87;21096;-76
2023/01/04 09:26:21;;;;;;;18.57;11.50;;;;;;;3.13;92.35;101118.84;1602588;87;21235;-76
2023/01/04 09:28:51;;;;;;;18.97;10.93;;;;;;;3.24;92.32;101108.94;1605478;86;21088;-76
2023/01/04 09:31:22;;;;;;;18.07;11.43;;;;;;;3.37;92.37;101105.97;1602219;87;21565;-76
2023/01/04 09:33:50;;;;;;;18.67;11.53;;;;;;;3.47;92.37;101098.24;1597538;88;21557;-77
2023/01/04 09:36:18;;;;;;;17.23;10.47;;;;;;;3.58;92.31;101086.61;1606575;87;21548;-75
2023/01/04 09:38:46;;;;;;;16.03;9.70;;;;;;;3.69;92.26;101082.75;1605737;87;21306;-75
2023/01/04 09:41:29;;;;;;;18.30;10.73;;;;;;;3.79;92.26;101071.08;1597764;88;21067;-77
2023/01/04 09:44:20;;;;;;;16.63;10.73;;;;;;;3.90;92.19;101068.94;1596435;89;21112;-75
2023/01/04 09:47:01;;;;;;;18.27;11.40;;;;;;;4.00;92.08;101051.23;1594887;88;21112;-72
2023/01/04 09:49:42;;;;;;;17.73;10.70;;;;;;;4.14;92.02;101043.45;1595625;89;21112;-71
2023/01/04 09:52:27;;;;;;;16.73;10.03;;;;;;;4.22;91.83;101031.34;1610689;87;21168;-72
2023/01/04 09:55:05;;;;;;;16.23;10.00;;;;;;;4.30;91.71;101037.83;1604963;87;21082;-72
2023/01/04 09:57:42;;;;;;;16.40;10.43;;;;;;;4.37;91.59;101027.41;1603835;87;21084;-71
2023/01/04 10:00:23;;;;;;;19.83;12.50;;;;;;;4.43;91.50;101023.94;1602978;87;21092;-71
2023/01/04 10:03:04;;;;;;;17.23;10.10;;;;;;;4.51;91.46;101022.63;1597820;89;21071;-72
2023/01/04 10:05:33;;;;;;;16.00;9.17;;;;;;;4.55;91.39;101012.25;1593824;87;22035;-70
2023/01/04 10:08:02;;;;;;;13.80;8.73;;;;;;;4.61;91.34;101004.44;1583144;88;20976;-71
2023/01/04 10:11:05;;;;;;;24.77;13.83;;;;;;;4.67;91.29;101002.25;1574390;88;22222;-72
2023/01/04 10:13:55;;;;;;;31.73;18.37;;;;;;;4.73;91.29;100992.28;1567873;88;21099;-70
2023/01/04 10:17:01;;;;;;;40.53;21.77;;;;;;;4.80;91.30;100977.12;1644468;85;21117;-71
2023/01/04 10:19:37;;;;;;;21.80;12.40;;;;;;;4.85;91.22;100967.14;1644149;86;21168;-71
2023/01/04 10:22:15;;;;;;;18.93;9.73;;;;;;;4.91;91.17;100961.05;1640687;85;21071;-71
2023/01/04 10:24:48;;;;;;;20.80;9.23;;;;;;;4.98;91.22;100951.04;1643024;86;21060;-72
2023/01/04 10:27:33;;;;;;;14.20;8.33;;;;;;;5.05;91.13;100950.59;1641823;86;21144;-71
2023/01/04 10:30:37;;;;;;;13.73;7.17;;;;;;;5.11;91.15;100936.25;1632671;87;21094;-72
2023/01/04 10:33:14;;;;;;;17.10;9.30;;;;;;;5.19;91.01;100921.92;1611241;87;21137;-71
2023/01/04 10:35:44;;;;;;;29.80;15.47;;;;;;;5.31;90.99;100916.62;1601397;87;21679;-75
2023/01/04 10:38:22;;;;;;;19.95;9.03;;;;;;;5.42;90.87;100907.45;1602437;87;21128;-77
2023/01/04 10:40:50;;;;;;;20.03;8.03;;;;;;;5.52;90.78;100897.41;1597590;87;21105;-77
2023/01/04 10:43:34;;;;;;;14.93;7.63;;;;;;;5.61;90.61;100890.83;1601089;87;21101;-75
2023/01/04 10:46:09;;;;;;;17.33;7.43;;;;;;;5.71;90.55;100882.07;1600957;88;21150;-75
2023/01/04 10:49:00;;;;;;;13.57;6.80;;;;;;;5.80;90.29;100875.47;1601031;87;21164;-75
2023/01/04 10:51:30;;;;;;;;;;;;;;;5.89;90.17;100874.95;1551576;90;21730;-75
2023/01/04 10:54:14;;;;;;;15.28;6.83;;;;;;;5.97;89.94;100869.27;1565292;90;20220;-76
2023/01/04 10:56:58;;;;;;;14.77;6.57;;;;;;;6.02;89.89;100868.34;1540502;90;21137;-77
2023/01/04 10:59:42;;;;;;;13.43;5.63;;;;;;;6.09;89.74;100856.11;1549833;90;21138;-77
2023/01/04 11:02:23;;;;;;;9.30;4.60;;;;;;;6.17;89.65;100847.78;1549831;90;21606;-76
2023/01/04 11:05:26;;;;;;;11.60;5.43;;;;;;;6.24;89.45;100842.94;1565932;90;21509;-74
2023/01/04 11:08:01;;;;;;;11.53;5.10;;;;;;;6.30;89.33;100832.88;1569967;88;21166;-75
2023/01/04 11:10:45;;;;;;;14.13;5.53;;;;;;;6.36;89.18;100835.85;1587091;88;21761;-71
2023/01/04 11:13:13;;;;;;;11.53;5.17;;;;;;;6.39;89.12;100836.66;1574051;88;21174;-75
2023/01/04 11:15:42;;;;;;;8.80;5.47;;;;;;;6.39;89.10;100831.45;1576660;88;21406;-81
2023/01/04 11:18:12;;;;;;;8.87;5.23;;;;;;;6.38;89.08;100830.19;1592774;88;21171;-76
2023/01/04 11:20:41;;;;;;;9.40;5.23;;;;;;;6.35;89.05;100814.61;1600160;88;21094;-77
2023/01/04 11:23:15;;;;;;;8.07;4.63;;;;;;;6.33;89.13;100810.72;1597933;88;21942;-77
2023/01/04 11:25:56;;;;;;;7.97;4.17;;;;;;;6.31;89.10;100809.01;1593430;88;21151;-78
2023/01/04 11:28:47;;;;;;;10.57;6.50;;;;;;;6.30;89.24;100795.58;1611753;86;21100;-79
2023/01/04 11:31:31;;;;;;;9.43;4.50;;;;;;;6.27;89.41;100793.88;1655728;86;21089;-75
2023/01/04 11:34:02;;;;;;;10.53;5.17;;;;;;;6.21;89.46;100787.01;1653208;84;21513;-74
2023/01/04 11:36:37;;;;;;;12.60;6.97;;;;;;;6.16;89.67;100767.12;1655217;86;21112;-76
2023/01/04 11:39:08;;;;;;;19.17;8.43;;;;;;;6.13;89.84;100754.16;1654837;86;21147;-76
2023/01/04 11:41:36;;;;;;;21.27;9.27;;;;;;;6.11;89.88;100752.86;1654620;84;21102;-77
2023/01/04 11:44:07;;;;;;;19.00;7.60;;;;;;;6.11;90.01;100746.36;1655144;84;21629;-76
2023/01/04 11:46:34;;;;;;;14.40;5.40;;;;;;;6.13;90.15;100740.70;1616837;88;21083;-77
2023/01/04 11:49:02;;;;;;;7.03;3.30;;;;;;;6.15;90.34;100731.55;1601527;89;21047;-76
2023/01/04 11:51:35;;;;;;;7.87;3.80;;;;;;;6.14;90.25;100724.64;1655128;84;21115;-75
2023/01/04 11:54:18;;;;;;;17.83;6.60;;;;;;;6.14;90.35;100718.13;1655789;86;21062;-76
2023/01/04 11:56:59;;;;;;;17.83;6.70;;;;;;;6.15;90.46;100716.83;1655679;86;21038;-78
2023/01/04 11:59:28;;;;;;;17.30;6.60;;;;;;;6.17;90.46;100718.09;1654136;86;21575;-75
2023/01/04 12:02:23;;;;;;;9.43;3.90;;;;;;;6.16;90.62;100707.27;1656268;84;21126;-75
2023/01/04 12:04:52;;;;;;;40.47;12.87;;;;;;;6.19;90.65;100709.83;1656176;84;21374;-74
2023/01/04 12:07:34;;;;;;;13.00;3.97;;;;;;;6.21;90.70;100705.47;1655852;85;21074;-73
2023/01/04 12:10:12;;;;;;;24.20;7.47;;;;;;;6.22;90.76;100694.16;1656331;84;21023;-78
2023/01/04 12:12:39;;;;;;;21.20;6.63;;;;;;;6.27;90.76;100690.20;1654592;86;21090;-73
2023/01/04 12:15:12;;;;;;;21.80;7.23;;;;;;;6.27;90.71;100678.48;1655307;85;21613;-74
2023/01/04 12:17:51;;;;;;;28.30;9.67;;;;;;;6.26;90.73;100665.89;1654210;86;21137;-74
2023/01/04 12:20:25;;;;;;;22.80;6.78;;;;;;;6.24;90.77;100663.77;1655725;84;27613;-77
2023/01/04 12:22:55;;;;;;;17.87;5.87;;;;;;;6.23;90.84;100671.14;1655172;84;21157;-76
2023/01/04 12:25:34;;;;;;;19.63;6.87;;;;;;;6.23;90.93;100677.20;1654895;84;21085;-73
2023/01/04 12:28:01;;;;;;;16.60;6.10;;;;;;;6.23;90.95;100664.63;1649856;85;21525;-74